sensor_id;sensor_type;location;lat;lon;timestamp;temperature;humidity
9768;DHT22;4923;52.520;13.494;2023-02-14T00:00:05;6.10;1.00
9768;DHT22;4923;52.520;13.494;2023-02-14T00:02:52;6.10;1.00
9768;DHT22;4923;52.520;13.494;2023-02-14T00:05:42;6.20;1.00
9768;DHT22;4923;52.520;13.494;2023-02-14T00:08:29;6.20;1.00
9768;DHT22;4923;52.520;13.494;2023-02-14T00:11:15;6.20;1.00
9768;DHT22;4923;52.520;13.494;2023-02-14T00:14:03;6.20;1.00
9768;DHT22;4923;52.520;13.494;2023-02-14T00:17:07;6.20;1.00
9768;DHT22;4923;52.520;13.494;2023-02-14T00:19:54;6.20;1.00
9768;DHT22;4923;52.520;13.494;2023-02-14T00:22:42;6.10;1.00
9768;DHT22;4923;52.520;13.494;2023-02-14T00:25:29;6.10;1.00
9768;DHT22;4923;52.520;13.494;2023-02-14T00:28:16;6.00;1.00
9768;DHT22;4923;52.520;13.494;2023-02-14T00:31:03;6.00;1.00
9768;DHT22;4923;52.520;13.494;2023-02-14T00:33:50;6.00;1.00
9768;DHT22;4923;52.520;13.494;2023-02-14T00:36:37;6.10;1.00
9768;DHT22;4923;52.520;13.494;2023-02-14T00:39:25;6.20;1.00
9768;DHT22;4923;52.520;13.494;2023-02-14T00:42:12;6.10;1.00
9768;DHT22;4923;52.520;13.494;2023-02-14T00:44:59;6.10;1.00
9768;DHT22;4923;52.520;13.494;2023-02-14T00:47:46;6.20;1.00
9768;DHT22;4923;52.520;13.494;2023-02-14T00:50:33;6.30;1.00
9768;DHT22;4923;52.520;13.494;2023-02-14T00:53:19;6.30;1.00
9768;DHT22;4923;52.520;13.494;2023-02-14T00:56:08;6.30;1.00
9768;DHT22;4923;52.520;13.494;2023-02-14T00:58:55;6.30;1.00
9768;DHT22;4923;52.520;13.494;2023-02-14T01:01:41;6.30;1.00
9768;DHT22;4923;52.520;13.494;2023-02-14T01:04:28;6.30;1.00
9768;DHT22;4923;52.520;13.494;2023-02-14T01:07:15;6.40;1.00
9768;DHT22;4923;52.520;13.494;2023-02-14T01:10:02;6.40;1.00
9768;DHT22;4923;52.520;13.494;2023-02-14T01:12:50;6.40;1.00
9768;DHT22;4923;52.520;13.494;2023-02-14T01:15:38;6.40;1.00
9768;DHT22;4923;52.520;13.494;2023-02-14T01:18:26;6.30;1.00
9768;DHT22;4923;52.520;13.494;2023-02-14T01:21:15;6.30;1.00
9768;DHT22;4923;52.520;13.494;2023-02-14T01:24:04;6.30;1.00
9768;DHT22;4923;52.520;13.494;2023-02-14T01:26:52;6.20;1.00
9768;DHT22;4923;52.520;13.494;2023-02-14T01:29:40;6.00;1.00
9768;DHT22;4923;52.520;13.494;2023-02-14T01:32:29;6.10;1.00
9768;DHT22;4923;52.520;13.494;2023-02-14T01:35:16;6.10;1.00
9768;DHT22;4923;52.520;13.494;2023-02-14T01:38:03;6.10;1.00
9768;DHT22;4923;52.520;13.494;2023-02-14T01:40:50;6.10;1.00
9768;DHT22;4923;52.520;13.494;2023-02-14T01:43:50;6.10;1.00
9768;DHT22;4923;52.520;13.494;2023-02-14T01:46:40;6.00;1.00
9768;DHT22;4923;52.520;13.494;2023-02-14T01:49:31;6.10;1.00
9768;DHT22;4923;52.520;13.494;2023-02-14T01:52:23;6.10;1.00
9768;DHT22;4923;52.520;13.494;2023-02-14T01:55:13;6.10;1.00
9768;DHT22;4923;52.520;13.494;2023-02-14T01:58:03;6.10;1.00
9768;DHT22;4923;52.520;13.494;2023-02-14T02:00:50;6.10;1.00
9768;DHT22;4923;52.520;13.494;2023-02-14T02:03:48;6.10;1.00
9768;DHT22;4923;52.520;13.494;2023-02-14T02:06:40;6.20;1.00
9768;DHT22;4923;52.520;13.494;2023-02-14T02:09:31;6.20;1.00
9768;DHT22;4923;52.520;13.494;2023-02-14T02:12:19;6.10;1.00
9768;DHT22;4923;52.520;13.494;2023-02-14T02:15:06;6.10;1.00
9768;DHT22;4923;52.520;13.494;2023-02-14T02:18:01;6.00;1.00
9768;DHT22;4923;52.520;13.494;2023-02-14T02:21:22;6.10;1.00
9768;DHT22;4923;52.520;13.494;2023-02-14T02:24:25;6.10;1.00
9768;DHT22;4923;52.520;13.494;2023-02-14T02:27:33;6.10;1.00
9768;DHT22;4923;52.520;13.494;2023-02-14T02:30:49;6.00;1.00
9768;DHT22;4923;52.520;13.494;2023-02-14T02:34:06;6.10;1.00
9768;DHT22;4923;52.520;13.494;2023-02-14T02:37:03;6.00;1.00
9768;DHT22;4923;52.520;13.494;2023-02-14T02:40:01;6.10;1.00
9768;DHT22;4923;52.520;13.494;2023-02-14T02:42:59;6.00;1.00
9768;DHT22;4923;52.520;13.494;2023-02-14T02:45:54;6.00;1.00
9768;DHT22;4923;52.520;13.494;2023-02-14T02:49:07;6.00;1.00
9768;DHT22;4923;52.520;13.494;2023-02-14T02:52:00;6.10;1.00
9768;DHT22;4923;52.520;13.494;2023-02-14T02:55:12;6.10;1.00
9768;DHT22;4923;52.520;13.494;2023-02-14T02:58:02;6.10;1.00
9768;DHT22;4923;52.520;13.494;2023-02-14T03:00:50;6.10;1.00
9768;DHT22;4923;52.520;13.494;2023-02-14T03:03:40;6.10;1.00
9768;DHT22;4923;52.520;13.494;2023-02-14T03:06:46;6.20;1.00
9768;DHT22;4923;52.520;13.494;2023-02-14T03:09:54;6.20;1.00
9768;DHT22;4923;52.520;13.494;2023-02-14T03:13:01;6.10;1.00
9768;DHT22;4923;52.520;13.494;2023-02-14T03:16:10;6.00;1.00
9768;DHT22;4923;52.520;13.494;2023-02-14T03:19:16;6.00;1.00
9768;DHT22;4923;52.520;13.494;2023-02-14T03:22:36;6.00;1.00
9768;DHT22;4923;52.520;13.494;2023-02-14T03:25:34;6.00;1.00
9768;DHT22;4923;52.520;13.494;2023-02-14T03:28:29;6.00;1.00
9768;DHT22;4923;52.520;13.494;2023-02-14T03:31:24;6.00;1.00
9768;DHT22;4923;52.520;13.494;2023-02-14T03:34:18;6.00;1.00
9768;DHT22;4923;52.520;13.494;2023-02-14T03:37:10;6.10;1.00
9768;DHT22;4923;52.520;13.494;2023-02-14T03:40:04;6.10;1.00
9768;DHT22;4923;52.520;13.494;2023-02-14T03:42:56;6.10;1.00
9768;DHT22;4923;52.520;13.494;2023-02-14T03:45:47;6.10;1.00
9768;DHT22;4923;52.520;13.494;2023-02-14T03:48:37;6.10;1.00
9768;DHT22;4923;52.520;13.494;2023-02-14T03:51:26;6.10;1.00
9768;DHT22;4923;52.520;13.494;2023-02-14T03:54:20;6.10;1.00
9768;DHT22;4923;52.520;13.494;2023-02-14T03:57:14;6.10;1.00
9768;DHT22;4923;52.520;13.494;2023-02-14T04:00:05;6.10;1.00
9768;DHT22;4923;52.520;13.494;2023-02-14T04:02:54;6.10;1.00
9768;DHT22;4923;52.520;13.494;2023-02-14T04:05:44;6.10;1.00
9768;DHT22;4923;52.520;13.494;2023-02-14T04:08:37;6.10;1.00
9768;DHT22;4923;52.520;13.494;2023-02-14T04:11:24;6.10;1.00
9768;DHT22;4923;52.520;13.494;2023-02-14T04:14:11;6.10;1.00
9768;DHT22;4923;52.520;13.494;2023-02-14T04:17:00;6.10;1.00
9768;DHT22;4923;52.520;13.494;2023-02-14T04:20:05;6.10;1.00
9768;DHT22;4923;52.520;13.494;2023-02-14T04:22:52;6.10;1.00
9768;DHT22;4923;52.520;13.494;2023-02-14T04:25:39;6.10;1.00
9768;DHT22;4923;52.520;13.494;2023-02-14T04:28:27;6.10;1.00
9768;DHT22;4923;52.520;13.494;2023-02-14T04:31:14;6.10;1.00
9768;DHT22;4923;52.520;13.494;2023-02-14T04:34:03;6.10;1.00
9768;DHT22;4923;52.520;13.494;2023-02-14T04:36:50;6.10;1.00
9768;DHT22;4923;52.520;13.494;2023-02-14T04:39:37;6.10;1.00
9768;DHT22;4923;52.520;13.494;2023-02-14T04:42:24;6.10;1.00
9768;DHT22;4923;52.520;13.494;2023-02-14T04:45:11;6.10;1.00
9768;DHT22;4923;52.520;13.494;2023-02-14T04:47:57;6.10;1.00
9768;DHT22;4923;52.520;13.494;2023-02-14T04:50:50;6.10;1.00
9768;DHT22;4923;52.520;13.494;2023-02-14T04:53:37;6.10;1.00
9768;DHT22;4923;52.520;13.494;2023-02-14T04:56:24;6.10;1.00
9768;DHT22;4923;52.520;13.494;2023-02-14T04:59:12;6.10;1.00
9768;DHT22;4923;52.520;13.494;2023-02-14T05:01:59;6.10;1.00
9768;DHT22;4923;52.520;13.494;2023-02-14T05:04:46;6.10;1.00
9768;DHT22;4923;52.520;13.494;2023-02-14T05:07:35;6.10;1.00
9768;DHT22;4923;52.520;13.494;2023-02-14T05:10:21;6.10;1.00
9768;DHT22;4923;52.520;13.494;2023-02-14T05:13:08;6.10;1.00
9768;DHT22;4923;52.520;13.494;2023-02-14T05:15:55;6.10;1.00
9768;DHT22;4923;52.520;13.494;2023-02-14T05:18:42;6.10;1.00
9768;DHT22;4923;52.520;13.494;2023-02-14T05:21:29;6.10;1.00
9768;DHT22;4923;52.520;13.494;2023-02-14T05:24:19;6.00;1.00
9768;DHT22;4923;52.520;13.494;2023-02-14T05:27:05;6.00;1.00
9768;DHT22;4923;52.520;13.494;2023-02-14T05:29:53;6.00;1.00
9768;DHT22;4923;52.520;13.494;2023-02-14T05:32:39;6.00;1.00
9768;DHT22;4923;52.520;13.494;2023-02-14T05:35:26;6.00;1.00
9768;DHT22;4923;52.520;13.494;2023-02-14T05:38:13;6.00;1.00
9768;DHT22;4923;52.520;13.494;2023-02-14T05:41:02;6.00;1.00
9768;DHT22;4923;52.520;13.494;2023-02-14T05:43:48;6.00;1.00
9768;DHT22;4923;52.520;13.494;2023-02-14T05:46:35;5.90;1.00
9768;DHT22;4923;52.520;13.494;2023-02-14T05:49:22;6.00;1.00
9768;DHT22;4923;52.520;13.494;2023-02-14T05:52:09;6.00;1.00
9768;DHT22;4923;52.520;13.494;2023-02-14T05:54:56;6.00;1.00
9768;DHT22;4923;52.520;13.494;2023-02-14T05:57:44;5.90;1.00
9768;DHT22;4923;52.520;13.494;2023-02-14T06:00:31;5.90;1.00
9768;DHT22;4923;52.520;13.494;2023-02-14T06:03:18;6.00;1.00
9768;DHT22;4923;52.520;13.494;2023-02-14T06:06:05;5.90;1.00
9768;DHT22;4923;52.520;13.494;2023-02-14T06:08:52;6.00;1.00
9768;DHT22;4923;52.520;13.494;2023-02-14T06:11:38;6.00;1.00
9768;DHT22;4923;52.520;13.494;2023-02-14T06:14:27;6.00;1.00
9768;DHT22;4923;52.520;13.494;2023-02-14T06:17:14;5.90;1.00
9768;DHT22;4923;52.520;13.494;2023-02-14T06:20:01;6.00;1.00
9768;DHT22;4923;52.520;13.494;2023-02-14T06:22:47;6.00;1.00
9768;DHT22;4923;52.520;13.494;2023-02-14T06:25:34;6.00;1.00
9768;DHT22;4923;52.520;13.494;2023-02-14T06:28:21;6.00;1.00
9768;DHT22;4923;52.520;13.494;2023-02-14T06:31:15;6.00;1.00
9768;DHT22;4923;52.520;13.494;2023-02-14T06:34:02;6.10;1.00
9768;DHT22;4923;52.520;13.494;2023-02-14T06:36:49;6.20;1.00
9768;DHT22;4923;52.520;13.494;2023-02-14T06:39:36;6.20;1.00
9768;DHT22;4923;52.520;13.494;2023-02-14T06:42:23;6.20;1.00
9768;DHT22;4923;52.520;13.494;2023-02-14T06:45:10;6.20;1.00
9768;DHT22;4923;52.520;13.494;2023-02-14T06:47:58;6.20;1.00
9768;DHT22;4923;52.520;13.494;2023-02-14T06:50:45;6.20;1.00
9768;DHT22;4923;52.520;13.494;2023-02-14T06:53:32;6.30;1.00
9768;DHT22;4923;52.520;13.494;2023-02-14T06:56:19;6.30;1.00
9768;DHT22;4923;52.520;13.494;2023-02-14T06:59:07;6.30;1.00
9768;DHT22;4923;52.520;13.494;2023-02-14T07:01:53;6.30;1.00
9768;DHT22;4923;52.520;13.494;2023-02-14T07:04:41;6.30;1.00
9768;DHT22;4923;52.520;13.494;2023-02-14T07:07:28;6.30;1.00
9768;DHT22;4923;52.520;13.494;2023-02-14T07:10:16;6.40;1.00
9768;DHT22;4923;52.520;13.494;2023-02-14T07:13:03;6.40;1.00
9768;DHT22;4923;52.520;13.494;2023-02-14T07:15:49;6.50;1.00
9768;DHT22;4923;52.520;13.494;2023-02-14T07:18:36;6.50;1.00
9768;DHT22;4923;52.520;13.494;2023-02-14T07:21:24;6.50;1.00
9768;DHT22;4923;52.520;13.494;2023-02-14T07:24:11;6.50;1.00
9768;DHT22;4923;52.520;13.494;2023-02-14T07:26:58;6.50;1.00
9768;DHT22;4923;52.520;13.494;2023-02-14T07:29:45;6.60;1.00
9768;DHT22;4923;52.520;13.494;2023-02-14T07:32:32;6.60;1.00
9768;DHT22;4923;52.520;13.494;2023-02-14T07:35:19;6.60;1.00
9768;DHT22;4923;52.520;13.494;2023-02-14T07:38:07;6.70;1.00
9768;DHT22;4923;52.520;13.494;2023-02-14T07:40:54;6.80;1.00
9768;DHT22;4923;52.520;13.494;2023-02-14T07:43:41;6.70;1.00
9768;DHT22;4923;52.520;13.494;2023-02-14T07:46:27;6.70;1.00
9768;DHT22;4923;52.520;13.494;2023-02-14T07:49:14;6.80;1.00
9768;DHT22;4923;52.520;13.494;2023-02-14T07:52:02;6.80;1.00
9768;DHT22;4923;52.520;13.494;2023-02-14T07:54:50;6.90;1.00
9768;DHT22;4923;52.520;13.494;2023-02-14T07:57:37;6.90;1.00
9768;DHT22;4923;52.520;13.494;2023-02-14T08:00:24;7.00;1.00
9768;DHT22;4923;52.520;13.494;2023-02-14T08:03:12;7.00;1.00
9768;DHT22;4923;52.520;13.494;2023-02-14T08:05:58;7.00;1.00
9768;DHT22;4923;52.520;13.494;2023-02-14T08:08:45;7.00;1.00
9768;DHT22;4923;52.520;13.494;2023-02-14T08:11:34;7.10;1.00
9768;DHT22;4923;52.520;13.494;2023-02-14T08:14:43;7.20;1.00
9768;DHT22;4923;52.520;13.494;2023-02-14T08:17:30;7.20;1.00
9768;DHT22;4923;52.520;13.494;2023-02-14T08:20:17;7.30;1.00
9768;DHT22;4923;52.520;13.494;2023-02-14T08:23:04;7.30;1.00
9768;DHT22;4923;52.520;13.494;2023-02-14T08:25:51;7.40;1.00
9768;DHT22;4923;52.520;13.494;2023-02-14T08:28:39;7.40;1.00
9768;DHT22;4923;52.520;13.494;2023-02-14T08:31:29;7.50;1.00
9768;DHT22;4923;52.520;13.494;2023-02-14T08:34:16;7.50;1.00
9768;DHT22;4923;52.520;13.494;2023-02-14T08:37:03;7.50;1.00
9768;DHT22;4923;52.520;13.494;2023-02-14T08:39:50;7.60;1.00
9768;DHT22;4923;52.520;13.494;2023-02-14T08:42:36;7.60;1.00
9768;DHT22;4923;52.520;13.494;2023-02-14T08:45:25;7.60;1.00
9768;DHT22;4923;52.520;13.494;2023-02-14T08:48:12;7.70;1.00
9768;DHT22;4923;52.520;13.494;2023-02-14T08:51:03;7.70;1.00
9768;DHT22;4923;52.520;13.494;2023-02-14T08:53:51;7.90;1.00
9768;DHT22;4923;52.520;13.494;2023-02-14T08:56:38;7.80;1.00
9768;DHT22;4923;52.520;13.494;2023-02-14T08:59:25;7.80;1.00
9768;DHT22;4923;52.520;13.494;2023-02-14T09:02:13;7.80;1.00
9768;DHT22;4923;52.520;13.494;2023-02-14T09:05:00;7.80;1.00
9768;DHT22;4923;52.520;13.494;2023-02-14T09:07:47;7.80;1.00
9768;DHT22;4923;52.520;13.494;2023-02-14T09:10:35;7.90;1.00
9768;DHT22;4923;52.520;13.494;2023-02-14T09:13:22;7.90;1.00
9768;DHT22;4923;52.520;13.494;2023-02-14T09:16:10;7.90;1.00
9768;DHT22;4923;52.520;13.494;2023-02-14T09:18:59;8.00;1.00
9768;DHT22;4923;52.520;13.494;2023-02-14T09:21:46;8.10;1.00
9768;DHT22;4923;52.520;13.494;2023-02-14T09:24:34;8.20;1.00
9768;DHT22;4923;52.520;13.494;2023-02-14T09:27:22;8.20;1.00
9768;DHT22;4923;52.520;13.494;2023-02-14T09:30:10;8.40;1.00
9768;DHT22;4923;52.520;13.494;2023-02-14T09:32:57;8.50;1.00
9768;DHT22;4923;52.520;13.494;2023-02-14T09:35:46;8.50;1.00
9768;DHT22;4923;52.520;13.494;2023-02-14T09:38:50;8.40;1.00
9768;DHT22;4923;52.520;13.494;2023-02-14T09:42:05;8.50;1.00
9768;DHT22;4923;52.520;13.494;2023-02-14T09:44:55;8.50;1.00
9768;DHT22;4923;52.520;13.494;2023-02-14T09:47:46;8.50;1.00
9768;DHT22;4923;52.520;13.494;2023-02-14T09:50:39;8.50;1.00
9768;DHT22;4923;52.520;13.494;2023-02-14T09:53:31;8.50;1.00
9768;DHT22;4923;52.520;13.494;2023-02-14T09:56:23;8.50;1.00
9768;DHT22;4923;52.520;13.494;2023-02-14T09:59:16;8.60;1.00
9768;DHT22;4923;52.520;13.494;2023-02-14T10:02:17;8.60;1.00
9768;DHT22;4923;52.520;13.494;2023-02-14T10:05:13;8.70;1.00
9768;DHT22;4923;52.520;13.494;2023-02-14T10:08:07;8.80;1.00
9768;DHT22;4923;52.520;13.494;2023-02-14T10:11:07;8.70;1.00
9768;DHT22;4923;52.520;13.494;2023-02-14T10:13:58;8.70;1.00
9768;DHT22;4923;52.520;13.494;2023-02-14T10:16:49;8.80;1.00
9768;DHT22;4923;52.520;13.494;2023-02-14T10:19:40;8.90;1.00
9768;DHT22;4923;52.520;13.494;2023-02-14T10:22:37;8.80;1.00
9768;DHT22;4923;52.520;13.494;2023-02-14T10:25:28;8.80;1.00
9768;DHT22;4923;52.520;13.494;2023-02-14T10:28:24;8.90;1.00
9768;DHT22;4923;52.520;13.494;2023-02-14T10:31:20;8.80;1.00
9768;DHT22;4923;52.520;13.494;2023-02-14T10:34:13;8.90;1.00
9768;DHT22;4923;52.520;13.494;2023-02-14T10:37:15;9.00;1.00
9768;DHT22;4923;52.520;13.494;2023-02-14T10:40:25;9.20;1.00
9768;DHT22;4923;52.520;13.494;2023-02-14T10:43:25;9.20;1.00
9768;DHT22;4923;52.520;13.494;2023-02-14T10:46:33;9.20;1.00
9768;DHT22;4923;52.520;13.494;2023-02-14T10:49:31;9.20;1.00
9768;DHT22;4923;52.520;13.494;2023-02-14T10:52:25;9.20;1.00
9768;DHT22;4923;52.520;13.494;2023-02-14T10:55:21;9.00;1.00
9768;DHT22;4923;52.520;13.494;2023-02-14T10:58:12;9.00;1.00
9768;DHT22;4923;52.520;13.494;2023-02-14T11:01:05;9.10;1.00
9768;DHT22;4923;52.520;13.494;2023-02-14T11:03:55;9.20;1.00
9768;DHT22;4923;52.520;13.494;2023-02-14T11:06:48;9.20;1.00
9768;DHT22;4923;52.520;13.494;2023-02-14T11:09:35;9.40;1.00
9768;DHT22;4923;52.520;13.494;2023-02-14T11:12:34;9.50;1.00
9768;DHT22;4923;52.520;13.494;2023-02-14T11:15:24;9.50;1.00
9768;DHT22;4923;52.520;13.494;2023-02-14T11:18:21;9.50;1.00
9768;DHT22;4923;52.520;13.494;2023-02-14T11:21:10;9.40;1.00
9768;DHT22;4923;52.520;13.494;2023-02-14T11:23:57;9.50;1.00
9768;DHT22;4923;52.520;13.494;2023-02-14T11:26:46;9.50;1.00
9768;DHT22;4923;52.520;13.494;2023-02-14T11:29:41;9.70;1.00
9768;DHT22;4923;52.520;13.494;2023-02-14T11:32:31;9.60;1.00
9768;DHT22;4923;52.520;13.494;2023-02-14T11:35:25;9.50;1.00
9768;DHT22;4923;52.520;13.494;2023-02-14T11:38:26;9.40;1.00
9768;DHT22;4923;52.520;13.494;2023-02-14T11:41:15;9.50;1.00
9768;DHT22;4923;52.520;13.494;2023-02-14T11:44:13;9.40;1.00
9768;DHT22;4923;52.520;13.494;2023-02-14T11:47:16;9.50;1.00
9768;DHT22;4923;52.520;13.494;2023-02-14T11:50:06;9.60;1.00
9768;DHT22;4923;52.520;13.494;2023-02-14T11:52:58;9.60;1.00
9768;DHT22;4923;52.520;13.494;2023-02-14T11:55:51;9.80;1.00
9768;DHT22;4923;52.520;13.494;2023-02-14T11:58:43;9.80;1.00
9768;DHT22;4923;52.520;13.494;2023-02-14T12:01:34;9.80;1.00
9768;DHT22;4923;52.520;13.494;2023-02-14T12:04:29;9.70;1.00
9768;DHT22;4923;52.520;13.494;2023-02-14T12:07:20;9.80;1.00
9768;DHT22;4923;52.520;13.494;2023-02-14T12:10:22;9.80;1.00
9768;DHT22;4923;52.520;13.494;2023-02-14T12:13:20;9.80;1.00
9768;DHT22;4923;52.520;13.494;2023-02-14T12:16:20;9.80;1.00
9768;DHT22;4923;52.520;13.494;2023-02-14T12:19:12;9.80;1.00
9768;DHT22;4923;52.520;13.494;2023-02-14T12:22:04;9.70;1.00
9768;DHT22;4923;52.520;13.494;2023-02-14T12:24:58;9.50;1.00
9768;DHT22;4923;52.520;13.494;2023-02-14T12:27:50;9.60;1.00
9768;DHT22;4923;52.520;13.494;2023-02-14T12:30:39;9.80;1.00
9768;DHT22;4923;52.520;13.494;2023-02-14T12:33:26;9.90;1.00
9768;DHT22;4923;52.520;13.494;2023-02-14T12:36:23;9.90;1.00
9768;DHT22;4923;52.520;13.494;2023-02-14T12:39:18;9.90;1.00
9768;DHT22;4923;52.520;13.494;2023-02-14T12:42:21;10.00;1.00
9768;DHT22;4923;52.520;13.494;2023-02-14T12:45:18;10.00;1.00
9768;DHT22;4923;52.520;13.494;2023-02-14T12:48:14;9.90;1.00
9768;DHT22;4923;52.520;13.494;2023-02-14T12:51:09;9.70;1.00
9768;DHT22;4923;52.520;13.494;2023-02-14T12:54:10;9.60;1.00
9768;DHT22;4923;52.520;13.494;2023-02-14T12:57:12;9.70;1.00
9768;DHT22;4923;52.520;13.494;2023-02-14T13:00:17;9.70;1.00
9768;DHT22;4923;52.520;13.494;2023-02-14T13:03:24;9.70;1.00
9768;DHT22;4923;52.520;13.494;2023-02-14T13:06:18;9.80;1.00
9768;DHT22;4923;52.520;13.494;2023-02-14T13:09:23;9.90;1.00
9768;DHT22;4923;52.520;13.494;2023-02-14T13:12:23;9.80;1.00
9768;DHT22;4923;52.520;13.494;2023-02-14T13:15:22;9.70;1.00
9768;DHT22;4923;52.520;13.494;2023-02-14T13:18:30;9.70;1.00
9768;DHT22;4923;52.520;13.494;2023-02-14T13:21:23;9.70;1.00
9768;DHT22;4923;52.520;13.494;2023-02-14T13:24:14;9.60;1.00
9768;DHT22;4923;52.520;13.494;2023-02-14T13:27:04;9.70;1.00
9768;DHT22;4923;52.520;13.494;2023-02-14T13:29:54;9.60;1.00
9768;DHT22;4923;52.520;13.494;2023-02-14T13:32:46;9.60;1.00
9768;DHT22;4923;52.520;13.494;2023-02-14T13:35:34;9.60;1.00
9768;DHT22;4923;52.520;13.494;2023-02-14T13:38:23;9.60;1.00
9768;DHT22;4923;52.520;13.494;2023-02-14T13:41:12;9.50;1.00
9768;DHT22;4923;52.520;13.494;2023-02-14T13:44:00;9.50;1.00
9768;DHT22;4923;52.520;13.494;2023-02-14T13:46:49;9.50;1.00
9768;DHT22;4923;52.520;13.494;2023-02-14T13:49:39;9.30;1.00
9768;DHT22;4923;52.520;13.494;2023-02-14T13:52:42;9.20;1.00
9768;DHT22;4923;52.520;13.494;2023-02-14T13:55:34;9.20;1.00
9768;DHT22;4923;52.520;13.494;2023-02-14T13:58:22;9.20;1.00
9768;DHT22;4923;52.520;13.494;2023-02-14T14:01:29;9.20;1.00
9768;DHT22;4923;52.520;13.494;2023-02-14T14:04:38;9.20;1.00
9768;DHT22;4923;52.520;13.494;2023-02-14T14:07:26;9.20;1.00
9768;DHT22;4923;52.520;13.494;2023-02-14T14:10:41;9.30;1.00
9768;DHT22;4923;52.520;13.494;2023-02-14T14:13:54;9.40;1.00
9768;DHT22;4923;52.520;13.494;2023-02-14T14:16:55;9.30;1.00
9768;DHT22;4923;52.520;13.494;2023-02-14T14:19:44;9.20;1.00
9768;DHT22;4923;52.520;13.494;2023-02-14T14:22:45;9.10;1.00
9768;DHT22;4923;52.520;13.494;2023-02-14T14:25:35;9.00;1.00
9768;DHT22;4923;52.520;13.494;2023-02-14T14:28:25;9.00;1.00
9768;DHT22;4923;52.520;13.494;2023-02-14T14:31:12;9.00;1.00
9768;DHT22;4923;52.520;13.494;2023-02-14T14:34:00;9.00;1.00
9768;DHT22;4923;52.520;13.494;2023-02-14T14:36:48;8.80;1.00
9768;DHT22;4923;52.520;13.494;2023-02-14T14:39:35;8.80;1.00
9768;DHT22;4923;52.520;13.494;2023-02-14T14:42:25;8.70;1.00
9768;DHT22;4923;52.520;13.494;2023-02-14T14:45:20;8.70;1.00
9768;DHT22;4923;52.520;13.494;2023-02-14T14:48:10;8.60;1.00
9768;DHT22;4923;52.520;13.494;2023-02-14T14:50:58;8.50;1.00
9768;DHT22;4923;52.520;13.494;2023-02-14T14:53:49;8.50;1.00
9768;DHT22;4923;52.520;13.494;2023-02-14T14:56:42;8.50;1.00
9768;DHT22;4923;52.520;13.494;2023-02-14T14:59:34;8.50;1.00
9768;DHT22;4923;52.520;13.494;2023-02-14T15:02:23;8.40;1.00
9768;DHT22;4923;52.520;13.494;2023-02-14T15:05:18;8.50;1.00
9768;DHT22;4923;52.520;13.494;2023-02-14T15:08:21;8.30;1.00
9768;DHT22;4923;52.520;13.494;2023-02-14T15:11:19;8.30;1.00
9768;DHT22;4923;52.520;13.494;2023-02-14T15:14:26;8.30;1.00
9768;DHT22;4923;52.520;13.494;2023-02-14T15:17:17;8.30;1.00
9768;DHT22;4923;52.520;13.494;2023-02-14T15:20:07;8.20;1.00
9768;DHT22;4923;52.520;13.494;2023-02-14T15:22:55;8.10;1.00
9768;DHT22;4923;52.520;13.494;2023-02-14T15:25:43;8.00;1.00
9768;DHT22;4923;52.520;13.494;2023-02-14T15:28:34;8.00;1.00
9768;DHT22;4923;52.520;13.494;2023-02-14T15:31:27;7.90;1.00
9768;DHT22;4923;52.520;13.494;2023-02-14T15:34:15;7.80;1.00
9768;DHT22;4923;52.520;13.494;2023-02-14T15:37:03;7.80;1.00
9768;DHT22;4923;52.520;13.494;2023-02-14T15:39:52;7.70;1.00
9768;DHT22;4923;52.520;13.494;2023-02-14T15:42:43;7.70;1.00
9768;DHT22;4923;52.520;13.494;2023-02-14T15:45:31;7.60;1.00
9768;DHT22;4923;52.520;13.494;2023-02-14T15:48:24;7.50;1.00
9768;DHT22;4923;52.520;13.494;2023-02-14T15:51:19;7.50;1.00
9768;DHT22;4923;52.520;13.494;2023-02-14T15:54:16;7.50;1.00
9768;DHT22;4923;52.520;13.494;2023-02-14T15:57:05;7.50;1.00
9768;DHT22;4923;52.520;13.494;2023-02-14T15:59:53;7.50;1.00
9768;DHT22;4923;52.520;13.494;2023-02-14T16:02:41;7.30;1.00
9768;DHT22;4923;52.520;13.494;2023-02-14T16:05:32;7.30;1.00
9768;DHT22;4923;52.520;13.494;2023-02-14T16:08:26;7.20;1.00
9768;DHT22;4923;52.520;13.494;2023-02-14T16:11:26;7.20;1.00
9768;DHT22;4923;52.520;13.494;2023-02-14T16:14:29;7.10;1.00
9768;DHT22;4923;52.520;13.494;2023-02-14T16:17:30;7.10;1.00
9768;DHT22;4923;52.520;13.494;2023-02-14T16:20:23;7.00;1.00
9768;DHT22;4923;52.520;13.494;2023-02-14T16:23:16;6.90;1.00
9768;DHT22;4923;52.520;13.494;2023-02-14T16:26:05;6.90;1.00
9768;DHT22;4923;52.520;13.494;2023-02-14T16:28:52;6.90;1.00
9768;DHT22;4923;52.520;13.494;2023-02-14T16:31:41;6.90;1.00
9768;DHT22;4923;52.520;13.494;2023-02-14T16:34:29;7.00;1.00
9768;DHT22;4923;52.520;13.494;2023-02-14T16:37:21;6.90;1.00
9768;DHT22;4923;52.520;13.494;2023-02-14T16:40:14;6.80;1.00
9768;DHT22;4923;52.520;13.494;2023-02-14T16:43:01;6.80;1.00
9768;DHT22;4923;52.520;13.494;2023-02-14T16:45:49;6.70;1.00
9768;DHT22;4923;52.520;13.494;2023-02-14T16:48:35;6.70;1.00
9768;DHT22;4923;52.520;13.494;2023-02-14T16:51:24;6.70;1.00
9768;DHT22;4923;52.520;13.494;2023-02-14T16:54:17;6.60;1.00
9768;DHT22;4923;52.520;13.494;2023-02-14T16:57:04;6.60;1.00
9768;DHT22;4923;52.520;13.494;2023-02-14T16:59:51;6.60;1.00
9768;DHT22;4923;52.520;13.494;2023-02-14T17:02:38;6.60;1.00
9768;DHT22;4923;52.520;13.494;2023-02-14T17:05:27;6.50;1.00
9768;DHT22;4923;52.520;13.494;2023-02-14T17:08:15;6.50;1.00
9768;DHT22;4923;52.520;13.494;2023-02-14T17:11:04;6.50;1.00
9768;DHT22;4923;52.520;13.494;2023-02-14T17:13:52;6.50;1.00
9768;DHT22;4923;52.520;13.494;2023-02-14T17:16:40;6.50;1.00
9768;DHT22;4923;52.520;13.494;2023-02-14T17:19:27;6.50;1.00
9768;DHT22;4923;52.520;13.494;2023-02-14T17:22:14;6.40;1.00
9768;DHT22;4923;52.520;13.494;2023-02-14T17:25:01;6.40;1.00
9768;DHT22;4923;52.520;13.494;2023-02-14T17:27:51;6.40;1.00
9768;DHT22;4923;52.520;13.494;2023-02-14T17:30:38;6.40;1.00
9768;DHT22;4923;52.520;13.494;2023-02-14T17:33:25;6.40;1.00
9768;DHT22;4923;52.520;13.494;2023-02-14T17:36:13;6.30;1.00
9768;DHT22;4923;52.520;13.494;2023-02-14T17:39:00;6.30;1.00
9768;DHT22;4923;52.520;13.494;2023-02-14T17:41:47;6.30;1.00
9768;DHT22;4923;52.520;13.494;2023-02-14T17:44:36;6.30;1.00
9768;DHT22;4923;52.520;13.494;2023-02-14T17:47:22;6.30;1.00
9768;DHT22;4923;52.520;13.494;2023-02-14T17:50:10;6.30;1.00
9768;DHT22;4923;52.520;13.494;2023-02-14T17:52:57;6.30;1.00
9768;DHT22;4923;52.520;13.494;2023-02-14T17:55:44;6.30;1.00
9768;DHT22;4923;52.520;13.494;2023-02-14T17:58:31;6.30;1.00
9768;DHT22;4923;52.520;13.494;2023-02-14T18:01:22;6.30;1.00
9768;DHT22;4923;52.520;13.494;2023-02-14T18:04:09;6.30;1.00
9768;DHT22;4923;52.520;13.494;2023-02-14T18:06:56;6.30;1.00
9768;DHT22;4923;52.520;13.494;2023-02-14T18:09:43;6.30;1.00
9768;DHT22;4923;52.520;13.494;2023-02-14T18:12:29;6.30;1.00
9768;DHT22;4923;52.520;13.494;2023-02-14T18:15:17;6.20;1.00
9768;DHT22;4923;52.520;13.494;2023-02-14T18:18:05;6.30;1.00
9768;DHT22;4923;52.520;13.494;2023-02-14T18:20:52;6.20;1.00
9768;DHT22;4923;52.520;13.494;2023-02-14T18:23:39;6.20;1.00
9768;DHT22;4923;52.520;13.494;2023-02-14T18:26:26;6.20;1.00
9768;DHT22;4923;52.520;13.494;2023-02-14T18:29:13;6.20;1.00
9768;DHT22;4923;52.520;13.494;2023-02-14T18:32:00;6.20;1.00
9768;DHT22;4923;52.520;13.494;2023-02-14T18:34:48;6.10;1.00
9768;DHT22;4923;52.520;13.494;2023-02-14T18:37:35;6.20;1.00
9768;DHT22;4923;52.520;13.494;2023-02-14T18:40:22;6.20;1.00
9768;DHT22;4923;52.520;13.494;2023-02-14T18:43:09;6.20;1.00
9768;DHT22;4923;52.520;13.494;2023-02-14T18:46:01;6.20;1.00
9768;DHT22;4923;52.520;13.494;2023-02-14T18:48:49;6.10;1.00
9768;DHT22;4923;52.520;13.494;2023-02-14T18:51:37;6.10;1.00
9768;DHT22;4923;52.520;13.494;2023-02-14T18:54:24;6.00;1.00